createdAt,value
2022-11-14T00:01:53.526Z,99737.71
2022-11-14T00:07:13.939Z,99734.55
2022-11-14T00:12:40.932Z,99729.88
2022-11-14T00:18:01.549Z,99725.98
2022-11-14T00:23:22.023Z,99725.94
2022-11-14T00:28:42.490Z,99731.02
2022-11-14T00:34:07.895Z,99728.13
2022-11-14T00:39:28.261Z,99730.52
2022-11-14T00:44:48.695Z,99725.25
2022-11-14T00:50:10.074Z,99726.73
2022-11-14T00:55:30.619Z,99717.72
2022-11-14T01:00:52.187Z,99716.27
2022-11-14T01:06:14.044Z,99715.86
2022-11-14T01:11:34.167Z,99709.42
2022-11-14T01:16:54.720Z,99706.58
2022-11-14T01:22:15.155Z,99695.27
2022-11-14T01:27:35.766Z,99690.36
2022-11-14T01:32:56.218Z,99680.60
2022-11-14T01:38:16.421Z,99674.44
2022-11-14T01:43:40.465Z,99670.02
2022-11-14T01:49:22.336Z,99654.92
2022-11-14T01:54:45.835Z,99643.56
2022-11-14T02:00:08.437Z,99649.08
2022-11-14T02:05:29.938Z,99647.52
2022-11-14T02:10:50.261Z,99642.09
2022-11-14T02:16:10.811Z,99634.23
2022-11-14T02:21:30.937Z,99625.93
2022-11-14T02:26:51.462Z,99622.75
2022-11-14T02:32:11.873Z,99618.98
2022-11-14T02:37:32.103Z,99614.45
2022-11-14T02:42:52.771Z,99618.61
2022-11-14T02:48:13.224Z,99625.30
2022-11-14T02:53:33.939Z,99617.45
2022-11-14T02:58:54.071Z,99617.30
2022-11-14T03:04:14.695Z,99616.09
2022-11-14T03:09:34.977Z,99609.57
2022-11-14T03:14:55.567Z,99607.45
2022-11-14T03:20:16.102Z,99606.98
2022-11-14T03:25:36.331Z,99599.77
2022-11-14T03:30:57.431Z,99601.61
2022-11-14T03:36:17.654Z,99600.85
2022-11-14T03:41:38.423Z,99593.20
2022-11-14T03:46:59.117Z,99593.36
2022-11-14T03:52:19.672Z,99596.38
2022-11-14T03:57:39.920Z,99595.97
2022-11-14T04:03:00.542Z,99591.77
2022-11-14T04:08:20.842Z,99588.55
2022-11-14T04:13:41.213Z,99584.80
2022-11-14T04:19:01.486Z,99582.66
2022-11-14T04:24:22.089Z,99578.67
2022-11-14T04:29:42.676Z,99578.59
2022-11-14T04:35:03.258Z,99574.48
2022-11-14T04:40:23.713Z,99577.82
2022-11-14T04:45:44.075Z,99576.66
2022-11-14T04:51:04.343Z,99573.37
2022-11-14T04:56:25.619Z,99566.31
2022-11-14T05:01:46.022Z,99566.38
2022-11-14T05:07:06.641Z,99562.48
2022-11-14T05:12:27.201Z,99569.48
2022-11-14T05:17:47.720Z,99564.83
2022-11-14T05:23:13.931Z,99565.65
2022-11-14T05:28:34.679Z,99567.73
2022-11-14T05:33:55.058Z,99574.20
2022-11-14T05:39:16.401Z,99575.64
2022-11-14T05:44:36.626Z,99570.84
2022-11-14T05:49:57.140Z,99569.96
2022-11-14T05:55:24.223Z,99579.77
2022-11-14T06:00:51.990Z,99581.27
2022-11-14T06:06:16.347Z,99582.27
2022-11-14T06:11:37.076Z,99576.33
2022-11-14T06:16:57.754Z,99579.98
2022-11-14T06:22:17.909Z,99583.55
2022-11-14T06:27:38.122Z,99584.30
2022-11-14T06:33:01.677Z,99589.29
2022-11-14T06:38:22.242Z,99588.80
2022-11-14T06:43:44.069Z,99584.62
2022-11-14T06:49:04.326Z,99585.17
2022-11-14T06:54:24.654Z,99586.50
2022-11-14T06:59:45.261Z,99583.44
2022-11-14T07:05:06.058Z,99587.06
2022-11-14T07:10:26.120Z,99583.20
2022-11-14T07:15:50.273Z,99583.15
2022-11-14T07:21:13.443Z,99577.70
2022-11-14T07:26:33.833Z,99577.02
2022-11-14T07:31:54.108Z,99569.97
2022-11-14T07:37:14.244Z,99570.08
2022-11-14T07:42:34.776Z,99567.70
2022-11-14T07:47:56.159Z,99557.11
2022-11-14T07:53:17.943Z,99556.65
2022-11-14T07:58:39.352Z,99542.80
2022-11-14T08:03:59.500Z,99542.34
2022-11-14T08:09:19.936Z,99544.81
2022-11-14T08:14:40.447Z,99536.12
2022-11-14T08:20:01.258Z,99536.98
2022-11-14T08:25:21.508Z,99533.79
2022-11-14T08:30:41.955Z,99522.63
2022-11-14T08:36:03.461Z,99524.41
2022-11-14T08:41:24.181Z,99525.67
2022-11-14T08:46:44.403Z,99521.11
2022-11-14T08:52:04.855Z,99521.25
2022-11-14T08:57:25.063Z,99522.77
2022-11-14T09:02:45.712Z,99519.31
2022-11-14T09:08:06.580Z,99525.83
2022-11-14T09:13:27.700Z,99520.41
2022-11-14T09:18:48.193Z,99515.35
2022-11-14T09:24:08.838Z,99519.02
2022-11-14T09:29:29.153Z,99516.18
2022-11-14T09:34:49.574Z,99508.91
2022-11-14T09:40:11.664Z,99502.39
2022-11-14T09:45:32.715Z,99497.66
2022-11-14T09:51:06.165Z,99493.41
2022-11-14T09:56:26.914Z,99477.32
2022-11-14T10:01:59.466Z,99469.48
2022-11-14T10:07:40.546Z,99459.71
2022-11-14T10:13:04.119Z,99452.82
2022-11-14T10:18:24.289Z,99444.77
2022-11-14T10:27:28.324Z,99428.67
2022-11-14T10:33:17.013Z,99425.81
2022-11-14T10:39:22.116Z,99424.20
2022-11-14T10:44:51.166Z,99409.80
2022-11-14T10:50:41.100Z,99397.04
2022-11-14T10:56:04.775Z,99392.15
2022-11-14T11:01:42.219Z,99395.64
2022-11-14T11:07:08.470Z,99387.66
2022-11-14T11:12:46.443Z,99372.92
2022-11-14T11:18:36.713Z,99366.30
2022-11-14T11:23:57.757Z,99368.73
2022-11-14T11:29:19.955Z,99358.14
2022-11-14T11:34:40.646Z,99364.61
2022-11-14T11:40:04.552Z,99359.03
2022-11-14T11:45:26.147Z,99354.58
2022-11-14T11:50:47.227Z,99355.70
2022-11-14T11:56:19.673Z,99348.90
2022-11-14T12:01:40.658Z,99343.89
2022-11-14T12:07:10.860Z,99334.95
2022-11-14T12:12:43.564Z,99329.48
2022-11-14T12:18:22.581Z,99324.08
2022-11-14T12:24:17.540Z,99319.05
2022-11-14T12:29:53.343Z,99316.75
2022-11-14T12:35:27.398Z,99311.52
2022-11-14T12:41:00.424Z,99303.21
2022-11-14T12:46:20.986Z,99290.55
2022-11-14T12:51:49.010Z,99286.90
2022-11-14T12:57:37.640Z,99285.21
2022-11-14T13:03:13.243Z,99284.77
2022-11-14T13:09:11.306Z,99280.27
2022-11-14T13:15:06.748Z,99271.02
2022-11-14T13:20:54.429Z,99258.88
2022-11-14T13:26:14.831Z,99253.41
2022-11-14T13:31:35.035Z,99251.17
2022-11-14T13:36:58.630Z,99250.70
2022-11-14T13:42:43.964Z,99247.27
2022-11-14T13:48:20.155Z,99246.39
2022-11-14T13:53:42.022Z,99242.98
2022-11-14T13:59:27.750Z,99247.31
2022-11-14T14:05:21.224Z,99240.23
2022-11-14T14:10:43.306Z,99242.25
2022-11-14T14:16:15.533Z,99241.68
2022-11-14T14:22:08.587Z,99233.55
2022-11-14T14:28:06.282Z,99234.24
2022-11-14T14:33:26.991Z,99232.86
2022-11-14T14:38:47.934Z,99221.58
2022-11-14T14:44:27.321Z,99215.23
2022-11-14T14:49:47.911Z,99207.40
2022-11-14T14:55:20.131Z,99206.77
2022-11-14T15:00:40.564Z,99211.88
2022-11-14T15:06:17.893Z,99211.73
2022-11-14T15:11:43.793Z,99207.95
2022-11-14T15:17:05.093Z,99212.28
2022-11-14T15:22:29.353Z,99211.39
2022-11-14T15:27:58.941Z,99204.45
2022-11-14T15:33:31.174Z,99194.44
2022-11-14T15:39:27.114Z,99184.90
2022-11-14T15:44:49.162Z,99185.22
2022-11-14T15:50:13.064Z,99187.23
2022-11-14T15:55:33.605Z,99186.20
2022-11-14T16:00:55.748Z,99184.95
2022-11-14T16:06:17.129Z,99184.08
2022-11-14T16:11:38.012Z,99181.95
2022-11-14T16:16:58.868Z,99184.20
2022-11-14T16:22:19.608Z,99183.45
2022-11-14T16:27:40.392Z,99167.80
2022-11-14T16:33:01.001Z,99178.86
2022-11-14T16:38:21.670Z,99171.65
2022-11-14T16:43:42.366Z,99173.25
2022-11-14T16:49:03.185Z,99175.82
2022-11-14T16:54:24.666Z,99176.82
2022-11-14T16:59:45.518Z,99174.77
2022-11-14T17:05:06.358Z,99172.55
2022-11-14T17:10:26.686Z,99167.42
2022-11-14T17:15:47.154Z,99158.64
2022-11-14T17:21:10.572Z,99155.80
2022-11-14T17:26:31.316Z,99148.02
2022-11-14T17:31:51.987Z,99147.09
2022-11-14T17:37:12.611Z,99148.25
2022-11-14T17:42:33.247Z,99145.04
2022-11-14T17:47:54.104Z,99140.04
2022-11-14T17:53:15.207Z,99144.64
2022-11-14T17:58:35.783Z,99143.23
2022-11-14T18:04:00.402Z,99142.50
2022-11-14T18:09:23.726Z,99138.88
2022-11-14T18:14:44.609Z,99135.58
2022-11-14T18:20:06.078Z,99129.81
2022-11-14T18:25:26.479Z,99122.23
2022-11-14T18:30:55.667Z,99117.84
2022-11-14T18:36:17.347Z,99111.60
2022-11-14T18:41:38.127Z,99106.86
2022-11-14T18:46:58.991Z,99106.63
2022-11-14T18:52:19.841Z,99105.69
2022-11-14T18:57:40.520Z,99107.36
2022-11-14T19:03:05.812Z,99101.54
2022-11-14T19:08:27.334Z,99099.27
2022-11-14T19:13:48.051Z,99106.39
2022-11-14T19:19:09.401Z,99099.71
2022-11-14T19:24:30.134Z,99097.17
2022-11-14T19:29:51.000Z,99092.59
2022-11-14T19:35:14.805Z,99082.60
2022-11-14T19:40:39.753Z,99080.41
2022-11-14T19:46:02.903Z,99076.45
2022-11-14T19:51:24.608Z,99076.33
2022-11-14T19:56:45.243Z,99078.44
2022-11-14T20:02:06.116Z,99078.48
2022-11-14T20:07:26.800Z,99073.67
2022-11-14T20:12:47.305Z,99074.94
2022-11-14T20:18:08.078Z,99067.30
2022-11-14T20:23:29.348Z,99057.27
2022-11-14T20:28:52.896Z,99055.08
2022-11-14T20:34:13.770Z,99047.38
2022-11-14T20:39:34.448Z,99048.63
2022-11-14T20:44:55.048Z,99046.39
2022-11-14T20:50:15.530Z,99041.47
2022-11-14T20:55:35.662Z,99037.70
2022-11-14T21:00:56.069Z,99032.92
2022-11-14T21:06:17.168Z,99032.52
2022-11-14T21:11:37.744Z,99027.92
2022-11-14T21:16:58.457Z,99025.57
2022-11-14T21:22:19.575Z,99022.20
2022-11-14T21:27:40.150Z,99021.64
2022-11-14T21:33:00.760Z,99017.36
2022-11-14T21:38:21.640Z,99014.36
2022-11-14T21:43:43.772Z,99017.61
2022-11-14T21:49:04.484Z,99011.60
2022-11-14T21:54:25.155Z,99019.66
2022-11-14T21:59:45.953Z,99018.81
2022-11-14T22:05:08.038Z,99022.79
2022-11-14T22:10:28.482Z,99022.95
2022-11-14T22:15:51.263Z,99027.83
2022-11-14T22:21:12.181Z,99027.23
2022-11-14T22:26:35.413Z,99033.43
2022-11-14T22:31:57.534Z,99029.59
2022-11-14T22:37:18.153Z,99031.05
2022-11-14T22:42:38.759Z,99026.19
2022-11-14T22:48:03.387Z,99030.36
2022-11-14T22:53:24.044Z,99029.41
2022-11-14T22:58:44.722Z,99027.00
2022-11-14T23:04:05.666Z,99019.20
2022-11-14T23:09:27.257Z,99016.73
2022-11-14T23:14:47.931Z,99017.89
2022-11-14T23:20:15.104Z,99018.56
2022-11-14T23:25:38.007Z,99014.52
2022-11-14T23:30:59.679Z,99002.31
2022-11-14T23:36:20.317Z,98998.11
2022-11-14T23:41:40.801Z,98990.65
2022-11-14T23:47:01.764Z,98994.73
2022-11-14T23:52:22.287Z,98993.81
2022-11-14T23:57:42.973Z,98981.48
